createdAt,value
2019-01-13T00:00:47.246Z,1.31
2019-01-13T00:03:14.398Z,1.30
2019-01-13T00:05:41.493Z,1.27
2019-01-13T00:08:08.616Z,1.26
2019-01-13T00:10:35.703Z,1.25
2019-01-13T00:13:02.813Z,1.27
2019-01-13T00:15:29.911Z,1.26
2019-01-13T00:17:57.041Z,1.27
2019-01-13T00:20:24.125Z,1.28
2019-01-13T00:22:51.221Z,1.29
2019-01-13T00:25:18.384Z,1.28
2019-01-13T00:27:45.481Z,1.25
2019-01-13T00:30:19.166Z,1.25
2019-01-13T00:32:42.137Z,1.24
2019-01-13T00:35:09.225Z,1.26
2019-01-13T00:37:36.284Z,1.25
2019-01-13T00:40:07.252Z,1.26
2019-01-13T00:42:34.377Z,1.26
2019-01-13T00:45:01.481Z,1.27
2019-01-13T00:47:28.543Z,1.28
2019-01-13T00:49:55.629Z,1.29
2019-01-13T00:52:22.779Z,1.30
2019-01-13T00:54:49.858Z,1.30
2019-01-13T00:57:16.971Z,1.30
2019-01-13T00:59:44.040Z,1.32
2019-01-13T01:02:11.113Z,1.33
2019-01-13T01:04:38.243Z,1.34
2019-01-13T01:07:05.522Z,1.34
2019-01-13T01:09:32.636Z,1.35
2019-01-13T01:11:59.759Z,1.34
2019-01-13T01:14:26.841Z,1.33
2019-01-13T01:16:53.901Z,1.32
2019-01-13T01:19:21.004Z,1.30
2019-01-13T01:21:48.080Z,1.29
2019-01-13T01:24:15.198Z,1.28
2019-01-13T01:26:42.324Z,1.28
2019-01-13T01:29:09.423Z,1.26
2019-01-13T01:31:36.486Z,1.25
2019-01-13T01:34:03.683Z,1.23
2019-01-13T01:36:30.841Z,1.21
2019-01-13T01:38:57.906Z,1.20
2019-01-13T01:41:25.000Z,1.20
2019-01-13T01:43:52.087Z,1.23
2019-01-13T01:46:19.200Z,1.22
2019-01-13T01:48:46.271Z,1.22
2019-01-13T01:51:13.358Z,1.21
2019-01-13T01:53:40.434Z,1.22
2019-01-13T01:56:07.517Z,1.24
2019-01-13T01:58:34.595Z,1.25
2019-01-13T02:01:01.682Z,1.28
2019-01-13T02:03:28.763Z,1.30
2019-01-13T02:05:55.833Z,1.34
2019-01-13T02:08:22.978Z,1.37
2019-01-13T02:10:50.024Z,1.37
2019-01-13T02:13:17.115Z,1.38
2019-01-13T02:15:44.179Z,1.43
2019-01-13T02:18:11.241Z,1.44
2019-01-13T02:20:38.299Z,1.46
2019-01-13T02:23:05.410Z,1.48
2019-01-13T02:25:32.469Z,1.48
2019-01-13T02:27:59.509Z,1.46
2019-01-13T02:30:26.940Z,1.42
2019-01-13T02:32:54.046Z,1.41
2019-01-13T02:35:21.133Z,1.35
2019-01-13T02:37:48.189Z,1.37
2019-01-13T02:40:17.173Z,1.38
2019-01-13T02:42:44.333Z,1.36
2019-01-13T02:45:13.957Z,1.34
2019-01-13T02:47:41.023Z,1.34
2019-01-13T02:50:08.416Z,1.33
2019-01-13T02:52:35.487Z,1.33
2019-01-13T02:55:02.663Z,1.33
2019-01-13T02:57:29.733Z,1.31
2019-01-13T02:59:56.799Z,1.31
2019-01-13T03:02:23.863Z,1.28
2019-01-13T03:04:50.939Z,1.26
2019-01-13T03:07:18.006Z,1.24
2019-01-13T03:09:45.071Z,1.21
2019-01-13T03:12:12.105Z,1.22
2019-01-13T03:14:39.164Z,1.20
2019-01-13T03:17:06.215Z,1.19
2019-01-13T03:19:33.288Z,1.21
2019-01-13T03:22:00.331Z,1.18
2019-01-13T03:24:27.413Z,1.14
2019-01-13T03:26:54.480Z,1.08
2019-01-13T03:29:21.524Z,1.04
2019-01-13T03:31:48.568Z,1.04
2019-01-13T03:34:15.633Z,1.03
2019-01-13T03:36:42.694Z,1.02
2019-01-13T03:39:09.764Z,1.03
2019-01-13T03:41:36.839Z,1.05
2019-01-13T03:44:03.994Z,1.09
2019-01-13T03:46:31.070Z,1.12
2019-01-13T03:48:58.124Z,1.16
2019-01-13T03:51:25.203Z,1.19
2019-01-13T03:53:52.300Z,1.22
2019-01-13T03:56:19.339Z,1.23
2019-01-13T03:58:46.354Z,1.25
2019-01-13T04:01:18.523Z,1.26
2019-01-13T04:03:42.383Z,1.26
2019-01-13T04:06:09.426Z,1.27
2019-01-13T04:08:36.483Z,1.27
2019-01-13T04:11:03.566Z,1.28
2019-01-13T04:13:30.665Z,1.30
2019-01-13T04:16:02.573Z,1.33
2019-01-13T04:18:29.635Z,1.39
2019-01-13T04:20:56.695Z,1.41
2019-01-13T04:23:23.719Z,1.41
2019-01-13T04:25:50.822Z,1.44
2019-01-13T04:28:17.890Z,1.47
2019-01-13T04:30:44.948Z,1.47
2019-01-13T04:33:12.021Z,1.47
2019-01-13T04:35:39.090Z,1.47
2019-01-13T04:38:06.140Z,1.51
2019-01-13T04:40:33.195Z,1.53
2019-01-13T04:43:00.246Z,1.53
2019-01-13T04:45:27.305Z,1.56
2019-01-13T04:47:54.373Z,1.59
2019-01-13T04:50:21.439Z,1.59
2019-01-13T04:52:48.493Z,1.59
2019-01-13T04:55:15.559Z,1.56
2019-01-13T04:57:42.596Z,1.55
2019-01-13T05:00:12.665Z,1.54
2019-01-13T05:02:39.725Z,1.55
2019-01-13T05:05:07.665Z,1.53
2019-01-13T05:07:34.735Z,1.52
2019-01-13T05:10:01.938Z,1.51
2019-01-13T05:12:28.998Z,1.48
2019-01-13T05:14:56.032Z,1.47
2019-01-13T05:17:23.101Z,1.46
2019-01-13T05:19:50.145Z,1.44
2019-01-13T05:22:17.215Z,1.45
2019-01-13T05:24:44.276Z,1.43
2019-01-13T05:27:11.307Z,1.42
2019-01-13T05:29:38.344Z,1.44
2019-01-13T05:32:05.394Z,1.43
2019-01-13T05:34:32.441Z,1.46
2019-01-13T05:36:59.498Z,1.78
2019-01-13T05:39:26.560Z,1.73
2019-01-13T05:41:53.616Z,1.65
2019-01-13T05:44:20.672Z,1.66
2019-01-13T05:46:47.754Z,1.60
2019-01-13T05:49:14.828Z,1.53
2019-01-13T05:51:41.891Z,1.48
2019-01-13T05:54:08.959Z,1.45
2019-01-13T05:56:36.014Z,1.41
2019-01-13T05:59:03.066Z,1.42
2019-01-13T06:01:30.135Z,1.40
2019-01-13T06:03:57.191Z,1.39
2019-01-13T06:06:24.267Z,1.37
2019-01-13T06:08:51.316Z,1.37
2019-01-13T06:11:18.381Z,1.37
2019-01-13T06:13:45.406Z,1.38
2019-01-13T06:16:12.444Z,1.38
2019-01-13T06:18:39.459Z,1.45
2019-01-13T06:21:06.496Z,1.56
2019-01-13T06:23:33.537Z,1.67
2019-01-13T06:26:00.608Z,1.70
2019-01-13T06:28:27.664Z,1.84
2019-01-13T06:30:54.706Z,1.99
2019-01-13T06:33:21.768Z,2.02
2019-01-13T06:35:48.807Z,2.08
2019-01-13T06:38:15.859Z,2.18
2019-01-13T06:40:42.884Z,2.19
2019-01-13T06:43:09.904Z,2.16
2019-01-13T06:45:36.940Z,2.15
2019-01-13T06:48:03.974Z,2.04
2019-01-13T06:50:31.012Z,1.93
2019-01-13T06:52:58.055Z,1.85
2019-01-13T06:55:25.102Z,1.78
2019-01-13T06:57:52.145Z,1.76
2019-01-13T07:00:21.076Z,1.72
2019-01-13T07:02:48.121Z,1.67
2019-01-13T07:05:15.156Z,1.64
2019-01-13T07:07:42.177Z,1.63
2019-01-13T07:10:09.398Z,1.63
2019-01-13T07:12:36.439Z,1.85
2019-01-13T07:15:05.591Z,2.07
2019-01-13T07:17:32.611Z,2.17
2019-01-13T07:19:59.673Z,2.15
2019-01-13T07:22:26.696Z,2.15
2019-01-13T07:24:53.731Z,2.18
2019-01-13T07:27:20.769Z,2.20
2019-01-13T07:29:47.800Z,2.16
2019-01-13T07:32:14.845Z,2.21
2019-01-13T07:34:41.869Z,2.27
2019-01-13T07:37:08.935Z,2.33
2019-01-13T07:39:35.987Z,2.36
2019-01-13T07:42:03.049Z,2.37
2019-01-13T07:44:30.073Z,2.42
2019-01-13T07:46:57.145Z,2.43
2019-01-13T07:49:24.192Z,2.33
2019-01-13T07:51:51.249Z,2.27
2019-01-13T07:54:18.279Z,2.20
2019-01-13T07:56:45.357Z,2.18
2019-01-13T07:59:12.404Z,2.25
2019-01-13T08:01:39.469Z,2.50
2019-01-13T08:04:06.513Z,2.78
2019-01-13T08:06:33.568Z,2.85
2019-01-13T08:09:00.660Z,2.77
2019-01-13T08:11:27.711Z,2.69
2019-01-13T08:13:54.776Z,2.76
2019-01-13T08:16:21.832Z,2.81
2019-01-13T08:18:48.879Z,2.77
2019-01-13T08:21:15.954Z,2.88
2019-01-13T08:23:43.000Z,2.87
2019-01-13T08:26:10.063Z,2.86
2019-01-13T08:28:37.105Z,2.83
2019-01-13T08:31:04.164Z,2.76
2019-01-13T08:33:31.196Z,2.71
2019-01-13T08:35:58.274Z,2.68
2019-01-13T08:38:25.372Z,2.65
2019-01-13T08:40:52.444Z,2.64
2019-01-13T08:43:19.495Z,2.65
2019-01-13T08:45:50.243Z,2.64
2019-01-13T08:48:15.512Z,2.63
2019-01-13T08:50:42.576Z,2.63
2019-01-13T08:53:09.672Z,2.61
2019-01-13T08:55:36.736Z,2.59
2019-01-13T08:58:03.786Z,2.58
2019-01-13T09:00:34.362Z,2.56
2019-01-13T09:03:03.012Z,2.57
2019-01-13T09:05:30.064Z,2.56
2019-01-13T09:07:57.121Z,2.58
2019-01-13T09:10:24.171Z,2.58
2019-01-13T09:12:56.609Z,2.59
2019-01-13T09:15:21.346Z,2.61
2019-01-13T09:17:48.617Z,2.59
2019-01-13T09:20:17.961Z,2.58
2019-01-13T09:22:45.234Z,2.60
2019-01-13T09:25:13.118Z,2.62
2019-01-13T09:27:40.211Z,2.64
2019-01-13T09:30:11.209Z,2.67
2019-01-13T09:32:39.670Z,2.68
2019-01-13T09:35:06.857Z,2.67
2019-01-13T09:37:33.918Z,2.67
2019-01-13T09:40:00.957Z,2.66
2019-01-13T09:42:28.039Z,2.69
2019-01-13T09:44:55.093Z,2.68
2019-01-13T09:47:22.177Z,2.69
2019-01-13T09:49:50.048Z,2.70
2019-01-13T09:52:17.493Z,2.72
2019-01-13T09:54:44.579Z,2.73
2019-01-13T09:57:11.686Z,2.72
2019-01-13T09:59:38.763Z,2.73
2019-01-13T10:02:05.859Z,2.75
2019-01-13T10:04:32.939Z,2.76
2019-01-13T10:07:00.020Z,2.77
2019-01-13T10:09:27.089Z,2.78
2019-01-13T10:11:54.144Z,2.77
2019-01-13T10:14:21.252Z,2.76
2019-01-13T10:16:48.435Z,2.78
2019-01-13T10:19:15.534Z,2.79
2019-01-13T10:21:42.643Z,2.84
2019-01-13T10:24:09.749Z,2.87
2019-01-13T10:26:36.874Z,2.89
2019-01-13T10:29:04.011Z,2.90
2019-01-13T10:31:31.115Z,2.91
2019-01-13T10:33:58.208Z,2.90
2019-01-13T10:36:25.323Z,2.91
2019-01-13T10:38:52.412Z,2.92
2019-01-13T10:41:19.506Z,2.93
2019-01-13T10:43:46.600Z,2.97
2019-01-13T10:46:13.767Z,2.99
2019-01-13T10:48:40.865Z,3.01
2019-01-13T10:51:07.985Z,3.04
2019-01-13T10:53:35.061Z,3.04
2019-01-13T10:56:02.256Z,3.05
2019-01-13T10:58:29.364Z,3.04
2019-01-13T11:00:56.464Z,3.04
2019-01-13T11:03:23.871Z,3.06
2019-01-13T11:05:51.103Z,3.16
2019-01-13T11:08:18.218Z,3.25
2019-01-13T11:10:45.358Z,3.30
2019-01-13T11:13:12.465Z,3.34
2019-01-13T11:15:39.581Z,3.33
2019-01-13T11:18:06.796Z,3.36
2019-01-13T11:20:38.306Z,3.38
2019-01-13T11:23:05.600Z,3.38
2019-01-13T11:25:32.714Z,3.32
2019-01-13T11:27:59.852Z,3.27
2019-01-13T11:30:27.078Z,3.22
2019-01-13T11:32:54.182Z,3.17
2019-01-13T11:35:21.310Z,3.14
2019-01-13T11:37:48.729Z,3.07
2019-01-13T11:40:18.094Z,3.03
2019-01-13T11:42:45.667Z,3.02
2019-01-13T11:45:14.941Z,2.96
2019-01-13T11:47:42.269Z,2.89
2019-01-13T11:50:13.049Z,2.84
2019-01-13T11:52:40.995Z,2.77
2019-01-13T11:55:09.173Z,2.72
2019-01-13T11:57:36.335Z,2.68
2019-01-13T12:00:06.648Z,2.64
2019-01-13T12:02:34.580Z,2.60
2019-01-13T12:05:01.940Z,2.57
2019-01-13T12:07:29.073Z,2.52
2019-01-13T12:09:56.201Z,2.50
2019-01-13T12:12:23.298Z,2.48
2019-01-13T12:14:50.437Z,2.47
2019-01-13T12:17:17.630Z,2.46
2019-01-13T12:19:44.831Z,2.44
2019-01-13T12:22:11.955Z,2.44
2019-01-13T12:24:39.063Z,2.45
2019-01-13T12:27:06.179Z,2.46
2019-01-13T12:29:33.312Z,2.44
2019-01-13T12:32:01.963Z,2.44
2019-01-13T12:34:29.367Z,2.44
2019-01-13T12:36:56.871Z,2.42
2019-01-13T12:39:25.007Z,2.40
2019-01-13T12:41:52.172Z,2.37
2019-01-13T12:44:20.332Z,2.36
2019-01-13T12:46:47.489Z,2.34
2019-01-13T12:49:14.925Z,2.31
2019-01-13T12:51:42.115Z,2.29
2019-01-13T12:54:10.735Z,2.28
2019-01-13T12:56:37.898Z,2.27
2019-01-13T12:59:04.995Z,2.27
2019-01-13T13:01:32.137Z,2.26
2019-01-13T13:03:59.347Z,2.23
2019-01-13T13:06:26.549Z,2.21
2019-01-13T13:08:54.075Z,2.20
2019-01-13T13:11:21.252Z,2.18
2019-01-13T13:13:48.398Z,2.17
2019-01-13T13:16:15.595Z,2.16
2019-01-13T13:18:42.767Z,2.13
2019-01-13T13:21:11.487Z,2.09
2019-01-13T13:23:38.630Z,2.09
2019-01-13T13:26:05.768Z,2.08
2019-01-13T13:28:33.876Z,2.06
2019-01-13T13:31:01.007Z,2.04
2019-01-13T13:33:28.204Z,2.04
2019-01-13T13:35:55.413Z,2.04
2019-01-13T13:38:22.594Z,2.04
2019-01-13T13:40:50.868Z,2.05
2019-01-13T13:43:18.016Z,2.07
2019-01-13T13:45:45.157Z,2.07
2019-01-13T13:48:13.936Z,2.09
2019-01-13T13:50:41.375Z,2.08
2019-01-13T13:53:10.836Z,2.09
2019-01-13T13:55:37.980Z,2.08
2019-01-13T13:58:05.228Z,2.09
2019-01-13T14:00:36.443Z,2.12
2019-01-13T14:03:04.079Z,2.11
2019-01-13T14:05:31.263Z,2.12
2019-01-13T14:07:58.443Z,2.12
2019-01-13T14:10:36.559Z,2.14
2019-01-13T14:13:04.081Z,2.15
2019-01-13T14:15:31.247Z,2.16
2019-01-13T14:17:58.451Z,2.21
2019-01-13T14:20:26.914Z,2.21
2019-01-13T14:22:54.063Z,2.22
2019-01-13T14:25:23.309Z,2.19
2019-01-13T14:27:50.601Z,2.20
2019-01-13T14:30:20.448Z,2.24
2019-01-13T14:32:47.607Z,2.26
2019-01-13T14:35:14.771Z,2.26
2019-01-13T14:37:42.090Z,2.26
2019-01-13T14:40:13.248Z,2.27
2019-01-13T14:42:40.847Z,2.27
2019-01-13T14:45:12.550Z,2.24
2019-01-13T14:47:40.089Z,2.21
2019-01-13T14:50:10.607Z,2.20
2019-01-13T14:52:38.036Z,2.18
2019-01-13T14:55:06.025Z,2.15
2019-01-13T14:57:33.601Z,2.13
2019-01-13T15:00:01.025Z,2.13
2019-01-13T15:02:28.522Z,2.10
2019-01-13T15:04:55.900Z,2.09
2019-01-13T15:07:23.157Z,2.11
2019-01-13T15:09:52.829Z,2.12
2019-01-13T15:12:20.303Z,2.11
2019-01-13T15:14:47.955Z,2.11
2019-01-13T15:17:21.476Z,2.11
2019-01-13T15:19:49.521Z,2.15
2019-01-13T15:22:17.386Z,2.16
2019-01-13T15:24:46.701Z,2.17
2019-01-13T15:27:14.660Z,2.23
2019-01-13T15:29:42.947Z,2.31
2019-01-13T15:32:11.700Z,2.34
2019-01-13T15:34:40.240Z,2.36
2019-01-13T15:37:08.175Z,2.40
2019-01-13T15:39:35.757Z,2.40
2019-01-13T15:42:03.899Z,2.41
2019-01-13T15:44:31.585Z,2.42
2019-01-13T15:46:59.433Z,2.47
2019-01-13T15:49:30.083Z,2.47
2019-01-13T15:51:57.638Z,2.44
2019-01-13T15:54:24.962Z,2.43
2019-01-13T15:56:52.188Z,2.42
2019-01-13T15:59:19.700Z,2.43
2019-01-13T16:01:46.965Z,2.43
2019-01-13T16:04:15.587Z,2.40
2019-01-13T16:06:43.079Z,2.43
2019-01-13T16:09:10.819Z,2.46
2019-01-13T16:11:40.175Z,2.44
2019-01-13T16:14:07.693Z,2.41
2019-01-13T16:16:34.983Z,2.41
2019-01-13T16:19:02.387Z,2.38
2019-01-13T16:21:30.261Z,2.38
2019-01-13T16:24:00.119Z,2.38
2019-01-13T16:26:27.321Z,2.38
2019-01-13T16:28:55.049Z,2.43
2019-01-13T16:31:23.904Z,2.43
2019-01-13T16:33:52.210Z,2.41
2019-01-13T16:36:20.315Z,2.42
2019-01-13T16:38:49.747Z,2.41
2019-01-13T16:41:18.022Z,2.38
2019-01-13T16:43:45.436Z,2.38
2019-01-13T16:46:12.875Z,2.42
2019-01-13T16:48:41.091Z,2.43
2019-01-13T16:51:09.361Z,2.47
2019-01-13T16:53:37.525Z,2.59
2019-01-13T16:56:07.501Z,2.69
2019-01-13T16:58:35.725Z,2.76
2019-01-13T17:01:03.663Z,2.89
2019-01-13T17:03:31.405Z,2.99
2019-01-13T17:06:01.409Z,3.07
2019-01-13T17:08:29.685Z,3.06
2019-01-13T17:10:59.290Z,3.05
2019-01-13T17:13:31.080Z,3.01
2019-01-13T17:15:59.520Z,2.92
2019-01-13T17:18:27.595Z,2.84
2019-01-13T17:20:55.474Z,2.78
2019-01-13T17:23:23.652Z,2.75
2019-01-13T17:25:51.769Z,2.82
2019-01-13T17:28:22.397Z,2.86
2019-01-13T17:30:53.677Z,2.87
2019-01-13T17:33:25.332Z,2.84
2019-01-13T17:35:53.544Z,2.84
2019-01-13T17:38:24.111Z,2.89
2019-01-13T17:40:53.533Z,2.89
2019-01-13T17:43:21.859Z,2.93
2019-01-13T17:45:49.886Z,2.96
2019-01-13T17:48:19.633Z,2.96
2019-01-13T17:50:48.318Z,3.01
2019-01-13T17:53:16.222Z,3.06
2019-01-13T17:55:44.315Z,3.04
2019-01-13T17:58:12.805Z,3.04
2019-01-13T18:00:53.555Z,3.02
2019-01-13T18:03:43.407Z,2.99
2019-01-13T18:06:13.230Z,3.00
2019-01-13T18:08:42.068Z,3.09
2019-01-13T18:11:11.643Z,3.12
2019-01-13T18:13:40.539Z,3.14
2019-01-13T18:16:10.259Z,3.21
2019-01-13T18:18:39.360Z,3.23
2019-01-13T18:21:09.432Z,3.25
2019-01-13T18:23:40.517Z,3.29
2019-01-13T18:26:09.018Z,3.30
2019-01-13T18:28:37.886Z,3.33
2019-01-13T18:31:07.702Z,3.36
2019-01-13T18:33:36.872Z,3.40
2019-01-13T18:36:07.821Z,3.39
2019-01-13T18:38:37.639Z,3.36
2019-01-13T18:41:06.144Z,3.42
2019-01-13T18:43:39.643Z,3.38
2019-01-13T18:46:09.074Z,3.33
2019-01-13T18:48:37.481Z,3.33
2019-01-13T18:51:06.680Z,3.30
2019-01-13T18:53:35.731Z,3.37
2019-01-13T18:56:05.520Z,3.38
2019-01-13T18:58:34.099Z,3.37
2019-01-13T19:01:05.096Z,3.36
2019-01-13T19:03:34.707Z,3.38
2019-01-13T19:06:03.883Z,3.40
2019-01-13T19:08:32.615Z,3.42
2019-01-13T19:11:23.902Z,3.43
2019-01-13T19:14:12.769Z,3.38
2019-01-13T19:16:49.801Z,3.37
2019-01-13T19:19:17.835Z,3.39
2019-01-13T19:21:46.913Z,3.42
2019-01-13T19:24:15.357Z,3.44
2019-01-13T19:26:44.091Z,3.45
2019-01-13T19:29:14.286Z,3.47
2019-01-13T19:31:43.169Z,3.51
2019-01-13T19:34:11.384Z,3.47
2019-01-13T19:36:43.305Z,3.47
2019-01-13T19:39:12.305Z,3.43
2019-01-13T19:41:40.554Z,3.42
2019-01-13T19:44:08.497Z,3.40
2019-01-13T19:46:38.584Z,3.45
2019-01-13T19:49:06.911Z,3.42
2019-01-13T19:51:35.506Z,3.49
2019-01-13T19:54:04.058Z,3.48
2019-01-13T19:56:33.848Z,3.63
2019-01-13T19:59:02.859Z,3.63
2019-01-13T20:01:33.142Z,3.56
2019-01-13T20:04:02.744Z,3.63
2019-01-13T20:06:31.997Z,3.67
2019-01-13T20:09:01.046Z,3.66
2019-01-13T20:11:31.072Z,3.66
2019-01-13T20:14:04.470Z,3.68
2019-01-13T20:16:33.829Z,3.74
2019-01-13T20:19:05.236Z,3.84
2019-01-13T20:21:33.419Z,3.90
2019-01-13T20:24:01.586Z,3.86
2019-01-13T20:26:29.646Z,3.86
2019-01-13T20:28:58.924Z,3.88
2019-01-13T20:31:27.438Z,3.89
2019-01-13T20:33:56.175Z,3.88
2019-01-13T20:36:26.869Z,3.91
2019-01-13T20:38:56.203Z,3.85
2019-01-13T20:41:23.908Z,3.83
2019-01-13T20:43:54.549Z,3.77
2019-01-13T20:46:25.651Z,3.79
2019-01-13T20:48:54.759Z,3.76
2019-01-13T20:51:25.901Z,3.74
2019-01-13T20:53:53.855Z,3.72
2019-01-13T20:56:22.762Z,3.71
2019-01-13T20:58:50.712Z,3.64
2019-01-13T21:01:18.511Z,3.56
2019-01-13T21:03:46.695Z,3.58
2019-01-13T21:06:14.177Z,3.59
2019-01-13T21:08:42.393Z,3.61
2019-01-13T21:11:09.753Z,3.64
2019-01-13T21:13:37.408Z,3.71
2019-01-13T21:16:04.994Z,3.75
2019-01-13T21:18:32.484Z,3.76
2019-01-13T21:20:59.963Z,3.69
2019-01-13T21:23:27.192Z,3.75
2019-01-13T21:25:54.412Z,3.75
2019-01-13T21:28:22.721Z,3.78
2019-01-13T21:30:51.782Z,3.78
2019-01-13T21:33:18.974Z,3.75
2019-01-13T21:35:46.883Z,3.76
2019-01-13T21:38:15.413Z,3.75
2019-01-13T21:40:42.579Z,3.75
2019-01-13T21:43:11.091Z,3.78
2019-01-13T21:45:38.235Z,3.74
2019-01-13T21:48:05.372Z,3.74
2019-01-13T21:50:32.800Z,3.67
2019-01-13T21:52:59.924Z,3.65
2019-01-13T21:55:27.194Z,3.61
2019-01-13T21:57:54.312Z,3.59
2019-01-13T22:00:23.728Z,3.62
2019-01-13T22:02:50.946Z,3.66
2019-01-13T22:05:18.074Z,3.66
2019-01-13T22:07:45.161Z,3.68
2019-01-13T22:10:14.553Z,3.67
2019-01-13T22:12:41.652Z,3.68
2019-01-13T22:15:09.923Z,3.67
2019-01-13T22:17:37.035Z,3.66
2019-01-13T22:20:05.561Z,3.71
2019-01-13T22:22:32.656Z,3.68
2019-01-13T22:24:59.729Z,3.65
2019-01-13T22:27:26.829Z,3.64
2019-01-13T22:29:53.903Z,3.64
2019-01-13T22:32:20.982Z,3.63
2019-01-13T22:34:48.075Z,3.64
2019-01-13T22:37:15.130Z,3.70
2019-01-13T22:39:42.215Z,3.70
2019-01-13T22:42:09.246Z,3.67
2019-01-13T22:44:36.328Z,3.65
2019-01-13T22:47:03.663Z,3.63
2019-01-13T22:49:30.740Z,3.68
2019-01-13T22:51:57.770Z,3.76
2019-01-13T22:54:25.938Z,3.80
2019-01-13T22:56:53.028Z,3.81
2019-01-13T22:59:20.061Z,3.78
2019-01-13T23:01:47.411Z,3.80
2019-01-13T23:04:15.642Z,3.80
2019-01-13T23:06:42.813Z,3.83
2019-01-13T23:09:10.966Z,3.94
2019-01-13T23:11:38.025Z,4.13
2019-01-13T23:14:06.799Z,4.21
2019-01-13T23:16:34.076Z,4.20
2019-01-13T23:19:01.126Z,4.27
2019-01-13T23:21:28.196Z,4.31
2019-01-13T23:23:55.251Z,4.24
2019-01-13T23:26:22.297Z,4.22
2019-01-13T23:28:49.329Z,4.23
2019-01-13T23:31:16.386Z,4.16
2019-01-13T23:33:43.409Z,4.14
2019-01-13T23:36:10.474Z,4.10
2019-01-13T23:38:37.497Z,4.08
2019-01-13T23:41:04.563Z,4.07
2019-01-13T23:43:31.615Z,4.06
2019-01-13T23:45:58.651Z,4.00
2019-01-13T23:48:25.699Z,4.02
2019-01-13T23:50:52.731Z,4.05
2019-01-13T23:53:19.783Z,4.08
2019-01-13T23:55:46.831Z,4.10
2019-01-13T23:58:13.897Z,4.09
